»·PEaware :: N221XG KTEX-KEGE

N221XG :: KTEX-KEGE

FLIGHT INFORMATION

Flight Status: Arrived
Operator: Privately registered:
United States
More flights under this callsign
Pilot: Ryan L. (9775)
Aircraft: BEECH AIRCRAFT SUPER KING AIR 350
(B350)
More flights by this aircraft type
Origin: KTEX Telluride Regl
United States
Destination: KEGE Eagle Co Regl
United States
More flights between these airports :: More routes between these airports
Route: HBU DBL
File this flight plan on PilotEdge
Remarks: Picking up IFR in the air enroute to HBU
Altitude:
(Current/Filed)
21,000ft
Speed:
(Current/Filed)
300kts
Departed: 11-Sep-19 05:56 PM
Arrived: 11-Sep-19 06:36 PM
Distance/Time
Traveled:
111nm/0:40
Distance/Time
To Go:
Arrived

Flight Plot

Page will automatically refresh every two minutes.

Flight plan parsing failed; only flown route is shown


Map Options




Map Legend


Flown Route
Filed Route
Departure Airport
Arrival Airport
Navaid (VOR, NDB)
Fix

Horizontal Profiles

Position Reports

Time Latitude Longitude Heading Altitude Ground
Speed
11-Sep-19 17:46 37.954676 -107.902554 98 9074ft 0kts
11-Sep-19 17:47 37.954676 -107.902554 98 9074ft 0kts
11-Sep-19 17:47 37.954676 -107.902554 98 9074ft 0kts
11-Sep-19 17:49 37.954664 -107.902466 105 9074ft 1kts
11-Sep-19 17:50 37.953889 -107.902451 177 9074ft 7kts
11-Sep-19 17:50 37.952951 -107.899251 104 9074ft 13kts
11-Sep-19 17:51 37.952289 -107.896641 158 9074ft 0kts
11-Sep-19 17:53 37.952289 -107.896641 158 9074ft 0kts
11-Sep-19 17:53 37.952289 -107.896641 158 9074ft 0kts
11-Sep-19 17:54 37.951991 -107.896651 192 9074ft 6kts
11-Sep-19 17:55 37.951724 -107.898869 283 9074ft 43kts
11-Sep-19 17:56 37.961338 -107.940877 281 9945ft 160kts
11-Sep-19 17:57 37.976997 -107.992539 288 12082ft 165kts
11-Sep-19 17:58 38.015173 -108.023252 10 13943ft 223kts
11-Sep-19 17:59 38.056275 -107.956960 60 15254ft 253kts
11-Sep-19 18:00 38.093797 -107.878226 58 16468ft 267kts
11-Sep-19 18:01 38.128105 -107.795513 53 17857ft 272kts
11-Sep-19 18:02 38.197603 -107.752020 17 18392ft 296kts
11-Sep-19 18:03 38.272062 -107.704900 20 19496ft 303kts
11-Sep-19 18:04 38.347417 -107.653979 21 20492ft 309kts
11-Sep-19 18:05 38.425839 -107.600494 21 20861ft 336kts
11-Sep-19 18:06 38.510935 -107.542181 22 20850ft 355kts
11-Sep-19 18:07 38.598796 -107.481786 22 20851ft 359kts
11-Sep-19 18:08 38.687023 -107.421009 22 20851ft 360kts
11-Sep-19 18:09 38.775707 -107.359743 23 20852ft 361kts
11-Sep-19 18:10 38.864120 -107.297572 24 20843ft 360kts
11-Sep-19 18:11 38.952078 -107.236294 24 20912ft 358kts
11-Sep-19 18:12 39.037504 -107.176738 24 21390ft 349kts
11-Sep-19 18:13 39.123693 -107.116628 24 21398ft 355kts
11-Sep-19 18:14 39.211172 -107.055493 24 21399ft 357kts
11-Sep-19 18:15 39.298719 -106.993954 24 21377ft 354kts
11-Sep-19 18:16 39.384697 -106.933357 25 19943ft 349kts
11-Sep-19 18:17 39.468982 -106.873810 24 18651ft 341kts
11-Sep-19 18:18 39.550058 -106.814265 32 17444ft 336kts
11-Sep-19 18:19 39.625569 -106.745394 32 15958ft 326kts
11-Sep-19 18:20 39.704315 -106.705529 8 15019ft 284kts
11-Sep-19 18:21 39.780247 -106.682143 7 14022ft 280kts
11-Sep-19 18:22 39.854200 -106.659389 8 14038ft 270kts
11-Sep-19 18:23 39.927188 -106.632595 34 14027ft 284kts
11-Sep-19 18:24 39.938941 -106.538623 124 14029ft 272kts
11-Sep-19 18:25 39.877486 -106.497853 172 14029ft 250kts
11-Sep-19 18:26 39.814829 -106.520829 203 13846ft 231kts
11-Sep-19 18:27 39.755039 -106.547263 202 13275ft 229kts
11-Sep-19 18:28 39.695660 -106.572606 202 12918ft 217kts
11-Sep-19 18:29 39.660446 -106.618363 285 12920ft 199kts
11-Sep-19 18:30 39.676559 -106.685846 258 11566ft 190kts
11-Sep-19 18:31 39.666499 -106.751447 254 10316ft 165kts
11-Sep-19 18:32 39.658935 -106.801771 257 9211ft 130kts
11-Sep-19 18:33 39.651263 -106.843131 257 7690ft 140kts
11-Sep-19 18:34 39.645541 -106.889803 262 6795ft 124kts
11-Sep-19 18:35 39.642119 -106.921793 260 6550ft 18kts
11-Sep-19 18:36 39.640939 -106.922139 80 6550ft 9kts
11-Sep-19 18:37 39.641550 -106.916664 80 6550ft 18kts
11-Sep-19 18:38 39.641436 -106.911677 90 6550ft 10kts
11-Sep-19 18:39 39.641259 -106.910818 84 6550ft 0kts
11-Sep-19 18:40 39.641259 -106.910818 84 6550ft 0kts
11-Sep-19 18:41 39.641259 -106.910818 84 6550ft 0kts
11-Sep-19 18:42 39.641259 -106.910818 84 6550ft 0kts
11-Sep-19 18:43 39.641259 -106.910818 84 6550ft 0kts
11-Sep-19 18:44 39.641259 -106.910818 84 6550ft 0kts
11-Sep-19 18:45 39.641259 -106.910818 84 6550ft 0kts
11-Sep-19 18:46 39.641259 -106.910818 84 6550ft 0kts

Navigation Log

Ident Type
Flight plan parsing failed, navigation log unavailable